createdAt,value
2023-12-19T00:03:58.385Z,4.13
2023-12-19T00:08:52.725Z,2.65
2023-12-19T00:13:47.276Z,2.78
2023-12-19T00:18:41.514Z,2.10
2023-12-19T00:23:37.050Z,2.78
2023-12-19T00:28:33.830Z,2.47
2023-12-19T00:33:28.658Z,3.05
2023-12-19T00:38:23.793Z,2.42
2023-12-19T00:43:18.435Z,3.28
2023-12-19T00:48:12.708Z,3.30
2023-12-19T00:53:06.681Z,2.58
2023-12-19T00:58:01.160Z,2.22
2023-12-19T01:02:55.485Z,2.90
2023-12-19T01:07:49.418Z,2.50
2023-12-19T01:12:43.594Z,2.60
2023-12-19T01:17:38.144Z,2.47
2023-12-19T01:22:32.370Z,2.17
2023-12-19T01:27:26.451Z,2.80
2023-12-19T01:47:02.510Z,1.90
2023-12-19T01:51:56.898Z,1.85
2023-12-19T01:56:51.141Z,1.92
2023-12-19T02:01:50.582Z,2.30
2023-12-19T02:06:45.407Z,1.77
2023-12-19T02:11:40.241Z,1.60
2023-12-19T02:16:34.735Z,1.73
2023-12-19T02:21:29.087Z,1.85
2023-12-19T02:26:24.666Z,1.60
2023-12-19T02:31:19.167Z,1.45
2023-12-19T02:36:13.373Z,1.60
2023-12-19T02:41:09.542Z,1.80
2023-12-19T02:46:05.115Z,1.40
2023-12-19T02:50:59.606Z,1.30
2023-12-19T02:55:54.163Z,1.40
2023-12-19T03:00:49.124Z,1.63
2023-12-19T03:05:43.960Z,1.58
2023-12-19T03:10:38.731Z,1.45
2023-12-19T03:15:32.749Z,1.27
2023-12-19T03:20:26.883Z,1.20
2023-12-19T03:25:21.442Z,1.23
2023-12-19T03:30:15.270Z,1.50
2023-12-19T03:35:10.002Z,1.00
2023-12-19T03:40:04.293Z,1.20
2023-12-19T03:44:58.674Z,1.40
2023-12-19T03:49:53.279Z,1.33
2023-12-19T03:54:48.230Z,1.25
2023-12-19T04:00:03.769Z,1.30
2023-12-19T04:05:01.951Z,1.27
2023-12-19T04:09:56.393Z,1.35
2023-12-19T04:14:50.466Z,1.40
2023-12-19T04:19:44.938Z,1.50
2023-12-19T04:24:41.133Z,1.30
2023-12-19T04:29:35.297Z,1.13
2023-12-19T04:34:30.065Z,1.13
2023-12-19T04:39:23.354Z,1.20
2023-12-19T04:44:17.708Z,1.27
2023-12-19T04:49:12.929Z,1.42
2023-12-19T04:54:09.989Z,1.10
2023-12-19T04:59:04.001Z,1.00
2023-12-19T05:03:59.624Z,1.10
2023-12-19T05:08:53.832Z,1.30
2023-12-19T05:13:48.519Z,1.17
2023-12-19T05:19:04.072Z,4.30
2023-12-19T05:23:58.544Z,1.10
2023-12-19T05:28:52.893Z,1.02
2023-12-19T05:33:47.507Z,4.07
2023-12-19T05:38:41.636Z,4.25
2023-12-19T05:43:35.994Z,4.55
2023-12-19T05:48:30.078Z,5.88
2023-12-19T05:53:24.644Z,3.67
2023-12-19T05:58:19.015Z,1.35
2023-12-19T06:03:13.528Z,3.20
2023-12-19T06:08:10.413Z,5.07
2023-12-19T06:13:05.449Z,1.70
2023-12-19T06:17:58.888Z,2.20
2023-12-19T06:22:53.324Z,1.00
2023-12-19T06:27:46.780Z,9.63
2023-12-19T06:32:42.822Z,1.30
2023-12-19T06:37:37.391Z,1.80
2023-12-19T06:42:31.733Z,3.30
2023-12-19T06:47:28.996Z,1.40
2023-12-19T06:52:23.093Z,1.08
2023-12-19T06:57:17.094Z,1.63
2023-12-19T07:02:11.004Z,1.00
2023-12-19T07:07:06.947Z,1.35
2023-12-19T07:12:01.168Z,1.27
2023-12-19T07:16:55.623Z,1.00
2023-12-19T07:21:50.633Z,0.93
2023-12-19T07:26:45.318Z,2.63
2023-12-19T07:31:40.177Z,2.72
2023-12-19T07:36:34.633Z,1.10
2023-12-19T07:41:28.923Z,3.00
2023-12-19T07:46:22.763Z,7.28
2023-12-19T07:51:22.780Z,1.10
2023-12-19T07:56:17.264Z,2.10
2023-12-19T08:01:33.584Z,1.38
2023-12-19T08:06:29.073Z,1.48
2023-12-19T08:11:23.067Z,1.63
2023-12-19T08:16:17.492Z,4.07
2023-12-19T08:21:12.716Z,4.13
2023-12-19T08:26:11.696Z,3.78
2023-12-19T08:31:06.525Z,4.28
2023-12-19T08:36:01.886Z,3.00
2023-12-19T08:40:55.419Z,3.60
2023-12-19T08:45:50.686Z,3.88
2023-12-19T08:50:44.583Z,5.13
2023-12-19T08:55:38.644Z,3.75
2023-12-19T09:00:32.883Z,20.60
2023-12-19T09:05:28.244Z,16.20
2023-12-19T09:10:23.019Z,8.38
2023-12-19T09:15:18.396Z,9.38
2023-12-19T09:20:13.734Z,7.50
2023-12-19T09:25:16.707Z,6.90
2023-12-19T09:30:12.340Z,5.35
2023-12-19T09:35:09.819Z,5.65
2023-12-19T09:40:04.334Z,4.15
2023-12-19T09:44:57.775Z,6.28
2023-12-19T09:49:59.578Z,5.50
2023-12-19T09:54:54.431Z,3.67
2023-12-19T09:59:54.930Z,3.03
2023-12-19T10:04:52.152Z,4.03
2023-12-19T10:09:57.118Z,9.18
2023-12-19T10:14:51.552Z,4.18
2023-12-19T10:19:45.981Z,4.22
2023-12-19T10:24:40.222Z,5.60
2023-12-19T10:29:42.027Z,2.92
2023-12-19T10:34:37.453Z,2.70
2023-12-19T10:39:30.848Z,2.78
2023-12-19T10:44:25.830Z,4.18
2023-12-19T10:49:20.794Z,4.45
2023-12-19T10:54:17.479Z,4.10
2023-12-19T10:59:12.038Z,3.85
2023-12-19T11:04:06.374Z,4.90
2023-12-19T11:09:05.796Z,5.28
2023-12-19T11:13:59.810Z,5.93
2023-12-19T11:19:05.469Z,6.53
2023-12-19T11:24:10.403Z,7.22
2023-12-19T11:29:04.388Z,6.65
2023-12-19T11:34:02.567Z,5.63
2023-12-19T11:39:28.049Z,5.50
2023-12-19T11:44:54.140Z,4.97
2023-12-19T11:49:49.535Z,5.18
2023-12-19T11:54:43.298Z,5.93
2023-12-19T11:59:51.018Z,5.20
2023-12-19T12:04:45.000Z,5.20
2023-12-19T12:09:46.110Z,5.93
2023-12-19T12:14:40.518Z,5.00
2023-12-19T12:19:56.013Z,4.57
2023-12-19T12:24:55.585Z,4.32
2023-12-19T12:29:50.762Z,4.45
2023-12-19T12:34:47.910Z,5.22
2023-12-19T12:39:42.276Z,4.68
2023-12-19T12:44:38.081Z,5.10
2023-12-19T12:49:33.771Z,4.93
2023-12-19T12:54:28.125Z,5.07
2023-12-19T12:59:24.433Z,5.45
2023-12-19T13:04:19.646Z,6.20
2023-12-19T13:09:22.153Z,5.60
2023-12-19T13:14:17.463Z,5.63
2023-12-19T13:19:16.778Z,5.65
2023-12-19T13:24:11.248Z,5.38
2023-12-19T13:29:05.507Z,5.28
2023-12-19T13:34:08.359Z,5.78
2023-12-19T13:39:04.264Z,5.67
2023-12-19T13:43:58.530Z,6.68
2023-12-19T13:48:53.764Z,6.85
2023-12-19T13:53:49.118Z,6.47
2023-12-19T13:58:43.259Z,7.63
2023-12-19T14:03:37.243Z,6.93
2023-12-19T14:08:32.770Z,9.65
2023-12-19T14:13:26.896Z,7.03
2023-12-19T14:18:21.213Z,6.88
2023-12-19T14:23:15.475Z,7.45
2023-12-19T14:28:10.024Z,7.00
2023-12-19T14:33:05.514Z,6.57
2023-12-19T14:37:59.348Z,6.47
2023-12-19T14:42:53.710Z,7.50
2023-12-19T14:47:48.868Z,7.43
2023-12-19T14:52:43.573Z,8.77
2023-12-19T14:57:37.768Z,6.07
2023-12-19T15:02:32.820Z,6.18
2023-12-19T15:07:27.552Z,9.88
2023-12-19T15:12:22.288Z,7.82
2023-12-19T15:17:15.982Z,12.70
2023-12-19T15:22:10.379Z,11.50
2023-12-19T15:27:06.015Z,6.72
2023-12-19T15:31:59.737Z,8.75
2023-12-19T15:36:54.116Z,7.50
2023-12-19T15:41:48.436Z,17.05
2023-12-19T15:46:43.484Z,8.02
2023-12-19T15:51:38.483Z,10.68
2023-12-19T15:56:33.648Z,12.63
2023-12-19T16:01:27.659Z,14.10
2023-12-19T16:11:17.097Z,19.23
2023-12-19T16:16:24.169Z,17.85
2023-12-19T16:21:19.510Z,17.50
2023-12-19T16:26:13.953Z,16.83
2023-12-19T16:31:16.531Z,14.73
2023-12-19T16:36:14.012Z,16.33
2023-12-19T16:41:09.560Z,16.27
2023-12-19T16:46:04.259Z,14.80
2023-12-19T16:50:58.457Z,11.93
2023-12-19T16:55:52.708Z,17.88
2023-12-19T17:00:46.434Z,22.35
2023-12-19T17:05:40.894Z,20.67
2023-12-19T17:10:34.999Z,11.82
2023-12-19T17:15:28.884Z,12.73
2023-12-19T17:20:23.165Z,26.08
2023-12-19T17:25:16.720Z,17.25
2023-12-19T17:30:12.174Z,22.00
2023-12-19T17:35:07.768Z,34.88
2023-12-19T17:40:02.197Z,25.88
2023-12-19T17:44:56.879Z,17.13
2023-12-19T17:49:51.064Z,20.58
2023-12-19T17:54:45.730Z,18.88
2023-12-19T17:59:39.890Z,14.05
2023-12-19T18:04:34.004Z,14.90
2023-12-19T18:09:32.337Z,13.18
2023-12-19T18:14:28.586Z,11.95
2023-12-19T18:19:22.845Z,10.52
2023-12-19T18:24:17.080Z,14.02
2023-12-19T18:34:06.606Z,12.23
2023-12-19T18:38:59.936Z,9.73
2023-12-19T18:48:52.825Z,9.27
2023-12-19T18:53:48.187Z,10.05
2023-12-19T18:58:44.219Z,10.25
2023-12-19T19:03:38.765Z,17.48
2023-12-19T19:08:33.209Z,6.95
2023-12-19T19:13:27.922Z,4.45
2023-12-19T19:18:22.914Z,6.75
2023-12-19T19:23:19.400Z,5.60
2023-12-19T19:28:14.209Z,6.68
2023-12-19T19:33:08.946Z,9.20
2023-12-19T19:38:06.023Z,7.55
2023-12-19T19:43:03.480Z,7.88
2023-12-19T19:47:57.689Z,7.45
2023-12-19T19:52:51.296Z,7.13
2023-12-19T19:57:45.104Z,7.72
2023-12-19T20:02:38.361Z,7.30
2023-12-19T20:07:32.916Z,6.35
2023-12-19T20:12:26.415Z,6.13
2023-12-19T20:17:20.579Z,5.60
2023-12-19T20:22:14.742Z,4.28
2023-12-19T20:27:10.591Z,5.13
2023-12-19T20:32:05.527Z,5.72
2023-12-19T20:36:58.801Z,11.68
2023-12-19T20:41:51.890Z,7.40
2023-12-19T20:46:47.708Z,6.22
2023-12-19T20:51:41.495Z,5.13
2023-12-19T20:56:36.535Z,4.03
2023-12-19T21:01:32.892Z,5.10
2023-12-19T21:06:26.897Z,3.53
2023-12-19T21:11:21.444Z,14.25
2023-12-19T21:16:14.593Z,8.07
2023-12-19T21:26:03.469Z,3.22
2023-12-19T21:30:58.228Z,3.85
2023-12-19T21:35:52.457Z,3.60
2023-12-19T21:45:42.941Z,2.00
2023-12-19T21:55:30.799Z,4.38
2023-12-19T22:00:25.069Z,3.40
2023-12-19T22:05:18.997Z,3.92
2023-12-19T22:10:13.826Z,2.70
2023-12-19T22:15:10.817Z,2.20
2023-12-19T22:20:06.215Z,2.72
2023-12-19T22:25:01.658Z,2.17
2023-12-19T22:29:56.238Z,30.30
2023-12-19T22:34:51.682Z,7.43
2023-12-19T22:39:45.213Z,2.50
2023-12-19T22:44:39.053Z,2.50
2023-12-19T22:49:33.468Z,2.85
2023-12-19T22:54:28.102Z,4.57
2023-12-19T22:59:22.393Z,3.30
2023-12-19T23:04:16.738Z,3.63
2023-12-19T23:14:04.476Z,3.30
2023-12-19T23:18:59.062Z,2.80
2023-12-19T23:23:54.548Z,2.90
2023-12-19T23:28:47.728Z,2.25
2023-12-19T23:38:35.556Z,2.20
2023-12-19T23:48:23.858Z,17.67
2023-12-19T23:53:17.861Z,3.40
2023-12-19T23:58:11.377Z,2.10
